sensor_id;sensor_type;location;lat;lon;timestamp;P1;durP1;ratioP1;P2;durP2;ratioP2
54947;SDS011;41113;41.882;12.530;2023-05-29T00:00:38;12.40;;;6.50;;
54947;SDS011;41113;41.882;12.530;2023-05-29T00:03:03;13.05;;;6.93;;
54947;SDS011;41113;41.882;12.530;2023-05-29T00:05:30;14.10;;;7.32;;
54947;SDS011;41113;41.882;12.530;2023-05-29T00:07:55;14.35;;;7.10;;
54947;SDS011;41113;41.882;12.530;2023-05-29T00:10:21;12.43;;;6.68;;
54947;SDS011;41113;41.882;12.530;2023-05-29T00:12:46;12.25;;;7.15;;
54947;SDS011;41113;41.882;12.530;2023-05-29T00:15:12;15.20;;;6.60;;
54947;SDS011;41113;41.882;12.530;2023-05-29T00:17:37;11.07;;;5.82;;
54947;SDS011;41113;41.882;12.530;2023-05-29T00:20:04;13.45;;;6.65;;
54947;SDS011;41113;41.882;12.530;2023-05-29T00:22:34;12.73;;;6.28;;
54947;SDS011;41113;41.882;12.530;2023-05-29T00:25:02;12.60;;;6.43;;
54947;SDS011;41113;41.882;12.530;2023-05-29T00:27:28;13.98;;;6.57;;
54947;SDS011;41113;41.882;12.530;2023-05-29T00:29:54;12.52;;;7.13;;
54947;SDS011;41113;41.882;12.530;2023-05-29T00:32:19;12.35;;;6.50;;
54947;SDS011;41113;41.882;12.530;2023-05-29T00:34:45;11.20;;;6.32;;
54947;SDS011;41113;41.882;12.530;2023-05-29T00:37:10;12.13;;;6.13;;
54947;SDS011;41113;41.882;12.530;2023-05-29T00:39:35;11.38;;;6.57;;
54947;SDS011;41113;41.882;12.530;2023-05-29T00:42:01;11.85;;;6.28;;
54947;SDS011;41113;41.882;12.530;2023-05-29T00:44:26;13.38;;;7.03;;
54947;SDS011;41113;41.882;12.530;2023-05-29T00:46:52;11.98;;;6.65;;
54947;SDS011;41113;41.882;12.530;2023-05-29T00:49:18;15.57;;;6.68;;
54947;SDS011;41113;41.882;12.530;2023-05-29T00:51:45;13.05;;;7.03;;
54947;SDS011;41113;41.882;12.530;2023-05-29T00:54:11;13.98;;;6.45;;
54947;SDS011;41113;41.882;12.530;2023-05-29T00:56:40;11.95;;;6.25;;
54947;SDS011;41113;41.882;12.530;2023-05-29T00:59:08;11.90;;;6.15;;
54947;SDS011;41113;41.882;12.530;2023-05-29T01:01:34;13.98;;;6.70;;
54947;SDS011;41113;41.882;12.530;2023-05-29T01:04:00;12.25;;;6.03;;
54947;SDS011;41113;41.882;12.530;2023-05-29T01:06:28;12.32;;;6.38;;
54947;SDS011;41113;41.882;12.530;2023-05-29T01:08:54;12.00;;;6.40;;
54947;SDS011;41113;41.882;12.530;2023-05-29T01:13:53;12.57;;;7.10;;
54947;SDS011;41113;41.882;12.530;2023-05-29T01:16:24;10.83;;;6.30;;
54947;SDS011;41113;41.882;12.530;2023-05-29T01:19:16;17.70;;;7.50;;
54947;SDS011;41113;41.882;12.530;2023-05-29T01:25:19;13.57;;;7.00;;
54947;SDS011;41113;41.882;12.530;2023-05-29T01:27:54;12.65;;;6.22;;
54947;SDS011;41113;41.882;12.530;2023-05-29T01:30:20;13.45;;;7.20;;
54947;SDS011;41113;41.882;12.530;2023-05-29T01:32:48;12.33;;;7.33;;
54947;SDS011;41113;41.882;12.530;2023-05-29T01:35:15;13.55;;;6.70;;
54947;SDS011;41113;41.882;12.530;2023-05-29T01:37:40;12.93;;;6.90;;
54947;SDS011;41113;41.882;12.530;2023-05-29T01:40:06;12.23;;;6.55;;
54947;SDS011;41113;41.882;12.530;2023-05-29T01:42:32;12.68;;;7.35;;
54947;SDS011;41113;41.882;12.530;2023-05-29T01:44:58;13.38;;;7.95;;
54947;SDS011;41113;41.882;12.530;2023-05-29T01:47:24;12.50;;;6.07;;
54947;SDS011;41113;41.882;12.530;2023-05-29T01:49:51;11.50;;;6.50;;
54947;SDS011;41113;41.882;12.530;2023-05-29T01:52:17;12.95;;;6.80;;
54947;SDS011;41113;41.882;12.530;2023-05-29T01:54:43;11.55;;;6.47;;
54947;SDS011;41113;41.882;12.530;2023-05-29T01:57:08;12.27;;;6.07;;
54947;SDS011;41113;41.882;12.530;2023-05-29T01:59:35;12.73;;;6.97;;
54947;SDS011;41113;41.882;12.530;2023-05-29T02:02:08;13.23;;;6.65;;
54947;SDS011;41113;41.882;12.530;2023-05-29T02:04:34;13.43;;;7.00;;
54947;SDS011;41113;41.882;12.530;2023-05-29T02:06:59;10.90;;;6.40;;
54947;SDS011;41113;41.882;12.530;2023-05-29T02:09:25;14.02;;;6.70;;
54947;SDS011;41113;41.882;12.530;2023-05-29T02:11:50;13.60;;;7.13;;
54947;SDS011;41113;41.882;12.530;2023-05-29T02:14:16;17.48;;;7.95;;
54947;SDS011;41113;41.882;12.530;2023-05-29T02:16:41;12.80;;;7.28;;
54947;SDS011;41113;41.882;12.530;2023-05-29T02:19:08;11.90;;;6.57;;
54947;SDS011;41113;41.882;12.530;2023-05-29T02:21:38;13.00;;;7.82;;
54947;SDS011;41113;41.882;12.530;2023-05-29T02:24:04;16.05;;;7.38;;
54947;SDS011;41113;41.882;12.530;2023-05-29T02:26:30;16.73;;;7.30;;
54947;SDS011;41113;41.882;12.530;2023-05-29T02:28:55;14.00;;;7.60;;
54947;SDS011;41113;41.882;12.530;2023-05-29T02:31:21;16.55;;;7.25;;
54947;SDS011;41113;41.882;12.530;2023-05-29T02:33:46;14.02;;;7.18;;
54947;SDS011;41113;41.882;12.530;2023-05-29T02:36:11;13.35;;;6.80;;
54947;SDS011;41113;41.882;12.530;2023-05-29T02:38:37;13.27;;;7.28;;
54947;SDS011;41113;41.882;12.530;2023-05-29T02:41:03;16.08;;;7.47;;
54947;SDS011;41113;41.882;12.530;2023-05-29T02:43:28;13.23;;;7.35;;
54947;SDS011;41113;41.882;12.530;2023-05-29T02:45:53;12.20;;;7.28;;
54947;SDS011;41113;41.882;12.530;2023-05-29T02:48:19;14.95;;;7.78;;
54947;SDS011;41113;41.882;12.530;2023-05-29T02:50:45;17.60;;;8.43;;
54947;SDS011;41113;41.882;12.530;2023-05-29T02:53:10;13.90;;;7.93;;
54947;SDS011;41113;41.882;12.530;2023-05-29T02:55:37;13.50;;;8.02;;
54947;SDS011;41113;41.882;12.530;2023-05-29T02:58:02;15.13;;;8.13;;
54947;SDS011;41113;41.882;12.530;2023-05-29T03:00:27;15.65;;;8.00;;
54947;SDS011;41113;41.882;12.530;2023-05-29T03:02:53;13.82;;;8.20;;
54947;SDS011;41113;41.882;12.530;2023-05-29T03:05:19;13.60;;;7.65;;
54947;SDS011;41113;41.882;12.530;2023-05-29T03:07:45;13.55;;;7.45;;
54947;SDS011;41113;41.882;12.530;2023-05-29T03:10:10;12.93;;;7.35;;
54947;SDS011;41113;41.882;12.530;2023-05-29T03:12:35;13.32;;;7.57;;
54947;SDS011;41113;41.882;12.530;2023-05-29T03:15:01;16.13;;;9.30;;
54947;SDS011;41113;41.882;12.530;2023-05-29T03:17:26;15.38;;;8.38;;
54947;SDS011;41113;41.882;12.530;2023-05-29T03:19:52;13.98;;;7.88;;
54947;SDS011;41113;41.882;12.530;2023-05-29T03:22:18;16.83;;;7.85;;
54947;SDS011;41113;41.882;12.530;2023-05-29T03:24:43;16.55;;;9.30;;
54947;SDS011;41113;41.882;12.530;2023-05-29T03:27:08;14.75;;;8.55;;
54947;SDS011;41113;41.882;12.530;2023-05-29T03:29:34;16.42;;;7.80;;
54947;SDS011;41113;41.882;12.530;2023-05-29T03:31:59;15.10;;;8.15;;
54947;SDS011;41113;41.882;12.530;2023-05-29T03:34:25;13.60;;;7.30;;
54947;SDS011;41113;41.882;12.530;2023-05-29T03:36:50;13.68;;;7.60;;
54947;SDS011;41113;41.882;12.530;2023-05-29T03:39:15;14.60;;;7.60;;
54947;SDS011;41113;41.882;12.530;2023-05-29T03:41:41;19.95;;;9.90;;
54947;SDS011;41113;41.882;12.530;2023-05-29T03:44:06;15.82;;;8.85;;
54947;SDS011;41113;41.882;12.530;2023-05-29T03:46:31;18.33;;;9.25;;
54947;SDS011;41113;41.882;12.530;2023-05-29T03:48:57;14.00;;;7.63;;
54947;SDS011;41113;41.882;12.530;2023-05-29T03:51:22;15.65;;;8.27;;
54947;SDS011;41113;41.882;12.530;2023-05-29T03:53:48;14.93;;;7.97;;
54947;SDS011;41113;41.882;12.530;2023-05-29T03:56:13;15.85;;;8.77;;
54947;SDS011;41113;41.882;12.530;2023-05-29T03:58:38;14.77;;;8.52;;
54947;SDS011;41113;41.882;12.530;2023-05-29T04:01:04;16.98;;;8.38;;
54947;SDS011;41113;41.882;12.530;2023-05-29T04:03:29;18.10;;;8.00;;
54947;SDS011;41113;41.882;12.530;2023-05-29T04:05:55;13.82;;;7.63;;
54947;SDS011;41113;41.882;12.530;2023-05-29T04:08:21;15.00;;;7.70;;
54947;SDS011;41113;41.882;12.530;2023-05-29T04:10:46;13.63;;;7.15;;
54947;SDS011;41113;41.882;12.530;2023-05-29T04:13:11;16.55;;;7.63;;
54947;SDS011;41113;41.882;12.530;2023-05-29T04:15:37;14.18;;;7.80;;
54947;SDS011;41113;41.882;12.530;2023-05-29T04:18:03;15.00;;;8.27;;
54947;SDS011;41113;41.882;12.530;2023-05-29T04:20:28;13.73;;;7.40;;
54947;SDS011;41113;41.882;12.530;2023-05-29T04:22:54;13.18;;;7.70;;
54947;SDS011;41113;41.882;12.530;2023-05-29T04:25:20;12.13;;;7.15;;
54947;SDS011;41113;41.882;12.530;2023-05-29T04:27:45;13.65;;;6.50;;
54947;SDS011;41113;41.882;12.530;2023-05-29T04:30:13;14.18;;;7.28;;
54947;SDS011;41113;41.882;12.530;2023-05-29T04:32:39;12.88;;;6.95;;
54947;SDS011;41113;41.882;12.530;2023-05-29T04:35:05;14.25;;;8.43;;
54947;SDS011;41113;41.882;12.530;2023-05-29T04:37:31;15.85;;;8.68;;
54947;SDS011;41113;41.882;12.530;2023-05-29T04:40:02;17.38;;;8.65;;
54947;SDS011;41113;41.882;12.530;2023-05-29T04:42:35;14.93;;;7.78;;
54947;SDS011;41113;41.882;12.530;2023-05-29T04:45:02;16.70;;;8.65;;
54947;SDS011;41113;41.882;12.530;2023-05-29T04:47:30;14.65;;;7.95;;
54947;SDS011;41113;41.882;12.530;2023-05-29T04:49:57;15.05;;;8.60;;
54947;SDS011;41113;41.882;12.530;2023-05-29T04:52:24;14.68;;;8.05;;
54947;SDS011;41113;41.882;12.530;2023-05-29T04:54:49;18.38;;;7.50;;
54947;SDS011;41113;41.882;12.530;2023-05-29T04:57:17;14.95;;;7.47;;
54947;SDS011;41113;41.882;12.530;2023-05-29T04:59:42;16.10;;;7.93;;
54947;SDS011;41113;41.882;12.530;2023-05-29T05:02:07;15.10;;;7.80;;
54947;SDS011;41113;41.882;12.530;2023-05-29T05:04:33;14.95;;;7.10;;
54947;SDS011;41113;41.882;12.530;2023-05-29T05:06:58;12.27;;;7.55;;
54947;SDS011;41113;41.882;12.530;2023-05-29T05:09:24;14.68;;;7.93;;
54947;SDS011;41113;41.882;12.530;2023-05-29T05:11:49;14.10;;;7.75;;
54947;SDS011;41113;41.882;12.530;2023-05-29T05:14:15;14.00;;;7.55;;
54947;SDS011;41113;41.882;12.530;2023-05-29T05:16:40;12.60;;;7.05;;
54947;SDS011;41113;41.882;12.530;2023-05-29T05:19:05;14.00;;;7.32;;
54947;SDS011;41113;41.882;12.530;2023-05-29T05:21:32;13.90;;;7.40;;
54947;SDS011;41113;41.882;12.530;2023-05-29T05:23:57;20.15;;;7.65;;
54947;SDS011;41113;41.882;12.530;2023-05-29T05:26:23;14.80;;;6.97;;
54947;SDS011;41113;41.882;12.530;2023-05-29T05:28:48;15.60;;;7.00;;
54947;SDS011;41113;41.882;12.530;2023-05-29T05:31:14;12.32;;;6.70;;
54947;SDS011;41113;41.882;12.530;2023-05-29T05:33:39;15.73;;;7.47;;
54947;SDS011;41113;41.882;12.530;2023-05-29T05:36:05;14.93;;;7.75;;
54947;SDS011;41113;41.882;12.530;2023-05-29T05:38:31;12.32;;;7.22;;
54947;SDS011;41113;41.882;12.530;2023-05-29T05:40:57;15.23;;;7.55;;
54947;SDS011;41113;41.882;12.530;2023-05-29T05:43:22;14.50;;;7.90;;
54947;SDS011;41113;41.882;12.530;2023-05-29T05:45:47;14.73;;;8.15;;
54947;SDS011;41113;41.882;12.530;2023-05-29T05:48:13;15.02;;;6.95;;
54947;SDS011;41113;41.882;12.530;2023-05-29T05:50:38;13.77;;;6.72;;
54947;SDS011;41113;41.882;12.530;2023-05-29T05:53:03;14.70;;;6.70;;
54947;SDS011;41113;41.882;12.530;2023-05-29T05:55:29;12.10;;;6.68;;
54947;SDS011;41113;41.882;12.530;2023-05-29T05:57:54;12.52;;;6.28;;
54947;SDS011;41113;41.882;12.530;2023-05-29T06:00:21;11.35;;;5.57;;
54947;SDS011;41113;41.882;12.530;2023-05-29T06:02:48;11.15;;;6.03;;
54947;SDS011;41113;41.882;12.530;2023-05-29T06:05:13;12.60;;;6.53;;
54947;SDS011;41113;41.882;12.530;2023-05-29T06:07:38;11.77;;;5.93;;
54947;SDS011;41113;41.882;12.530;2023-05-29T06:10:04;12.23;;;5.93;;
54947;SDS011;41113;41.882;12.530;2023-05-29T06:12:30;11.85;;;6.07;;
54947;SDS011;41113;41.882;12.530;2023-05-29T06:14:55;10.73;;;6.13;;
54947;SDS011;41113;41.882;12.530;2023-05-29T06:17:21;13.05;;;5.60;;
54947;SDS011;41113;41.882;12.530;2023-05-29T06:19:46;11.32;;;5.78;;
54947;SDS011;41113;41.882;12.530;2023-05-29T06:22:13;13.13;;;5.85;;
54947;SDS011;41113;41.882;12.530;2023-05-29T06:24:39;13.70;;;6.10;;
54947;SDS011;41113;41.882;12.530;2023-05-29T06:27:04;12.75;;;5.75;;
54947;SDS011;41113;41.882;12.530;2023-05-29T06:29:31;12.05;;;5.57;;
54947;SDS011;41113;41.882;12.530;2023-05-29T06:31:56;12.60;;;6.85;;
54947;SDS011;41113;41.882;12.530;2023-05-29T06:34:22;12.02;;;5.90;;
54947;SDS011;41113;41.882;12.530;2023-05-29T06:36:47;11.48;;;6.13;;
54947;SDS011;41113;41.882;12.530;2023-05-29T06:39:13;12.90;;;6.22;;
54947;SDS011;41113;41.882;12.530;2023-05-29T06:41:38;12.80;;;6.15;;
54947;SDS011;41113;41.882;12.530;2023-05-29T06:44:04;11.98;;;5.80;;
54947;SDS011;41113;41.882;12.530;2023-05-29T06:46:29;12.23;;;6.03;;
54947;SDS011;41113;41.882;12.530;2023-05-29T06:48:55;10.50;;;5.40;;
54947;SDS011;41113;41.882;12.530;2023-05-29T06:51:21;11.43;;;5.82;;
54947;SDS011;41113;41.882;12.530;2023-05-29T06:53:46;11.73;;;6.53;;
54947;SDS011;41113;41.882;12.530;2023-05-29T06:56:11;10.85;;;5.25;;
54947;SDS011;41113;41.882;12.530;2023-05-29T06:58:38;11.93;;;6.07;;
54947;SDS011;41113;41.882;12.530;2023-05-29T07:01:04;12.75;;;5.13;;
54947;SDS011;41113;41.882;12.530;2023-05-29T07:03:31;11.27;;;6.35;;
54947;SDS011;41113;41.882;12.530;2023-05-29T07:05:56;12.45;;;6.65;;
54947;SDS011;41113;41.882;12.530;2023-05-29T07:08:22;12.30;;;6.18;;
54947;SDS011;41113;41.882;12.530;2023-05-29T07:10:50;13.98;;;5.65;;
54947;SDS011;41113;41.882;12.530;2023-05-29T07:13:16;10.73;;;5.30;;
54947;SDS011;41113;41.882;12.530;2023-05-29T07:15:42;12.77;;;5.63;;
54947;SDS011;41113;41.882;12.530;2023-05-29T07:18:08;10.80;;;5.60;;
54947;SDS011;41113;41.882;12.530;2023-05-29T07:20:33;10.15;;;5.05;;
54947;SDS011;41113;41.882;12.530;2023-05-29T07:22:58;12.93;;;5.40;;
54947;SDS011;41113;41.882;12.530;2023-05-29T07:25:24;12.48;;;5.95;;
54947;SDS011;41113;41.882;12.530;2023-05-29T07:27:50;11.00;;;5.40;;
54947;SDS011;41113;41.882;12.530;2023-05-29T07:30:15;12.40;;;5.25;;
54947;SDS011;41113;41.882;12.530;2023-05-29T07:32:41;11.60;;;5.43;;
54947;SDS011;41113;41.882;12.530;2023-05-29T07:35:06;10.93;;;5.45;;
54947;SDS011;41113;41.882;12.530;2023-05-29T07:37:33;10.80;;;5.40;;
54947;SDS011;41113;41.882;12.530;2023-05-29T07:39:59;11.70;;;5.85;;
54947;SDS011;41113;41.882;12.530;2023-05-29T07:42:24;12.45;;;5.20;;
54947;SDS011;41113;41.882;12.530;2023-05-29T07:44:50;11.75;;;5.78;;
54947;SDS011;41113;41.882;12.530;2023-05-29T07:47:15;11.20;;;5.78;;
54947;SDS011;41113;41.882;12.530;2023-05-29T07:49:40;14.40;;;5.95;;
54947;SDS011;41113;41.882;12.530;2023-05-29T07:52:06;11.00;;;5.63;;
54947;SDS011;41113;41.882;12.530;2023-05-29T07:54:32;12.23;;;5.68;;
54947;SDS011;41113;41.882;12.530;2023-05-29T07:56:58;12.48;;;5.63;;
54947;SDS011;41113;41.882;12.530;2023-05-29T07:59:25;13.38;;;5.63;;
54947;SDS011;41113;41.882;12.530;2023-05-29T08:01:50;11.15;;;5.32;;
54947;SDS011;41113;41.882;12.530;2023-05-29T08:04:16;9.60;;;4.88;;
54947;SDS011;41113;41.882;12.530;2023-05-29T08:06:41;10.23;;;4.90;;
54947;SDS011;41113;41.882;12.530;2023-05-29T08:09:08;11.48;;;5.45;;
54947;SDS011;41113;41.882;12.530;2023-05-29T08:11:34;10.30;;;5.18;;
54947;SDS011;41113;41.882;12.530;2023-05-29T08:14:00;12.77;;;5.30;;
54947;SDS011;41113;41.882;12.530;2023-05-29T08:16:26;12.32;;;5.88;;
54947;SDS011;41113;41.882;12.530;2023-05-29T08:18:52;13.95;;;6.10;;
54947;SDS011;41113;41.882;12.530;2023-05-29T08:21:17;10.20;;;5.45;;
54947;SDS011;41113;41.882;12.530;2023-05-29T08:23:42;10.90;;;4.88;;
54947;SDS011;41113;41.882;12.530;2023-05-29T08:26:08;10.77;;;5.15;;
54947;SDS011;41113;41.882;12.530;2023-05-29T08:28:34;10.23;;;5.28;;
54947;SDS011;41113;41.882;12.530;2023-05-29T08:30:59;13.18;;;5.28;;
54947;SDS011;41113;41.882;12.530;2023-05-29T08:33:25;12.30;;;5.38;;
54947;SDS011;41113;41.882;12.530;2023-05-29T08:35:50;10.32;;;4.93;;
54947;SDS011;41113;41.882;12.530;2023-05-29T08:38:15;10.20;;;4.85;;
54947;SDS011;41113;41.882;12.530;2023-05-29T08:40:41;12.02;;;5.15;;
54947;SDS011;41113;41.882;12.530;2023-05-29T08:43:08;10.32;;;5.28;;
54947;SDS011;41113;41.882;12.530;2023-05-29T08:45:42;9.93;;;4.93;;
54947;SDS011;41113;41.882;12.530;2023-05-29T08:48:08;9.97;;;5.13;;
54947;SDS011;41113;41.882;12.530;2023-05-29T08:50:35;12.15;;;5.25;;
54947;SDS011;41113;41.882;12.530;2023-05-29T08:53:03;11.02;;;5.30;;
54947;SDS011;41113;41.882;12.530;2023-05-29T08:55:29;10.18;;;5.53;;
54947;SDS011;41113;41.882;12.530;2023-05-29T08:57:55;13.77;;;5.40;;
54947;SDS011;41113;41.882;12.530;2023-05-29T09:00:21;10.90;;;5.55;;
54947;SDS011;41113;41.882;12.530;2023-05-29T09:02:52;11.05;;;5.53;;
54947;SDS011;41113;41.882;12.530;2023-05-29T09:05:18;10.82;;;5.47;;
54947;SDS011;41113;41.882;12.530;2023-05-29T09:07:44;11.13;;;5.57;;
54947;SDS011;41113;41.882;12.530;2023-05-29T09:10:09;11.70;;;5.00;;
54947;SDS011;41113;41.882;12.530;2023-05-29T09:12:35;11.52;;;5.25;;
54947;SDS011;41113;41.882;12.530;2023-05-29T09:15:02;12.23;;;5.72;;
54947;SDS011;41113;41.882;12.530;2023-05-29T09:17:31;12.13;;;6.05;;
54947;SDS011;41113;41.882;12.530;2023-05-29T09:19:58;10.68;;;5.85;;
54947;SDS011;41113;41.882;12.530;2023-05-29T09:22:23;10.10;;;5.53;;
54947;SDS011;41113;41.882;12.530;2023-05-29T09:24:49;12.48;;;6.55;;
54947;SDS011;41113;41.882;12.530;2023-05-29T09:27:15;11.73;;;5.57;;
54947;SDS011;41113;41.882;12.530;2023-05-29T09:29:42;11.75;;;6.05;;
54947;SDS011;41113;41.882;12.530;2023-05-29T09:32:09;13.43;;;6.30;;
54947;SDS011;41113;41.882;12.530;2023-05-29T09:34:38;12.35;;;5.63;;
54947;SDS011;41113;41.882;12.530;2023-05-29T09:37:05;10.98;;;5.60;;
54947;SDS011;41113;41.882;12.530;2023-05-29T09:42:11;10.73;;;5.50;;
54947;SDS011;41113;41.882;12.530;2023-05-29T09:44:36;11.13;;;5.40;;
54947;SDS011;41113;41.882;12.530;2023-05-29T09:47:02;10.93;;;5.40;;
54947;SDS011;41113;41.882;12.530;2023-05-29T09:49:27;12.93;;;5.60;;
54947;SDS011;41113;41.882;12.530;2023-05-29T09:51:56;12.27;;;5.85;;
54947;SDS011;41113;41.882;12.530;2023-05-29T09:54:24;10.63;;;5.35;;
54947;SDS011;41113;41.882;12.530;2023-05-29T09:56:56;12.63;;;5.00;;
54947;SDS011;41113;41.882;12.530;2023-05-29T09:59:23;10.73;;;5.65;;
54947;SDS011;41113;41.882;12.530;2023-05-29T10:01:53;10.73;;;5.38;;
54947;SDS011;41113;41.882;12.530;2023-05-29T10:04:25;10.40;;;5.70;;
54947;SDS011;41113;41.882;12.530;2023-05-29T10:06:50;12.65;;;5.90;;
54947;SDS011;41113;41.882;12.530;2023-05-29T10:09:17;12.00;;;6.10;;
54947;SDS011;41113;41.882;12.530;2023-05-29T10:11:44;11.73;;;6.22;;
54947;SDS011;41113;41.882;12.530;2023-05-29T10:14:19;11.30;;;5.68;;
54947;SDS011;41113;41.882;12.530;2023-05-29T10:16:48;12.55;;;6.13;;
54947;SDS011;41113;41.882;12.530;2023-05-29T10:19:21;12.30;;;5.68;;
54947;SDS011;41113;41.882;12.530;2023-05-29T10:21:52;11.23;;;5.78;;
54947;SDS011;41113;41.882;12.530;2023-05-29T10:24:18;10.30;;;5.60;;
54947;SDS011;41113;41.882;12.530;2023-05-29T10:26:46;11.65;;;5.65;;
54947;SDS011;41113;41.882;12.530;2023-05-29T10:29:22;10.90;;;5.80;;
54947;SDS011;41113;41.882;12.530;2023-05-29T10:40:24;12.57;;;6.35;;
54947;SDS011;41113;41.882;12.530;2023-05-29T10:42:51;11.65;;;6.07;;
54947;SDS011;41113;41.882;12.530;2023-05-29T10:48:40;12.60;;;6.22;;
54947;SDS011;41113;41.882;12.530;2023-05-29T10:50:53;12.20;;;6.38;;
54947;SDS011;41113;41.882;12.530;2023-05-29T10:53:23;11.73;;;5.93;;
54947;SDS011;41113;41.882;12.530;2023-05-29T10:55:50;11.98;;;6.80;;
54947;SDS011;41113;41.882;12.530;2023-05-29T10:58:20;13.18;;;6.05;;
54947;SDS011;41113;41.882;12.530;2023-05-29T11:00:48;12.93;;;5.80;;
54947;SDS011;41113;41.882;12.530;2023-05-29T11:03:15;12.60;;;6.43;;
54947;SDS011;41113;41.882;12.530;2023-05-29T11:06:01;11.18;;;6.07;;
54947;SDS011;41113;41.882;12.530;2023-05-29T11:08:42;11.55;;;6.18;;
54947;SDS011;41113;41.882;12.530;2023-05-29T11:11:15;13.18;;;6.03;;
54947;SDS011;41113;41.882;12.530;2023-05-29T11:13:54;10.65;;;6.38;;
54947;SDS011;41113;41.882;12.530;2023-05-29T11:16:35;10.40;;;6.00;;
54947;SDS011;41113;41.882;12.530;2023-05-29T11:19:08;11.40;;;6.10;;
54947;SDS011;41113;41.882;12.530;2023-05-29T11:21:49;11.80;;;5.88;;
54947;SDS011;41113;41.882;12.530;2023-05-29T11:24:25;12.70;;;6.13;;
54947;SDS011;41113;41.882;12.530;2023-05-29T11:26:52;15.88;;;7.07;;
54947;SDS011;41113;41.882;12.530;2023-05-29T11:29:22;13.38;;;6.55;;
54947;SDS011;41113;41.882;12.530;2023-05-29T11:31:54;12.15;;;5.93;;
54947;SDS011;41113;41.882;12.530;2023-05-29T11:34:23;13.18;;;6.90;;
54947;SDS011;41113;41.882;12.530;2023-05-29T11:36:52;11.95;;;6.28;;
54947;SDS011;41113;41.882;12.530;2023-05-29T11:39:18;14.45;;;7.13;;
54947;SDS011;41113;41.882;12.530;2023-05-29T11:41:45;19.67;;;7.70;;
54947;SDS011;41113;41.882;12.530;2023-05-29T11:44:16;12.80;;;6.90;;
54947;SDS011;41113;41.882;12.530;2023-05-29T11:46:41;13.15;;;6.60;;
54947;SDS011;41113;41.882;12.530;2023-05-29T11:49:07;13.25;;;6.80;;
54947;SDS011;41113;41.882;12.530;2023-05-29T11:51:33;17.02;;;6.88;;
54947;SDS011;41113;41.882;12.530;2023-05-29T11:54:00;15.98;;;6.55;;
54947;SDS011;41113;41.882;12.530;2023-05-29T11:56:29;13.27;;;6.80;;
54947;SDS011;41113;41.882;12.530;2023-05-29T11:58:57;13.52;;;6.78;;
54947;SDS011;41113;41.882;12.530;2023-05-29T12:01:24;14.30;;;6.32;;
54947;SDS011;41113;41.882;12.530;2023-05-29T12:03:51;12.85;;;6.40;;
54947;SDS011;41113;41.882;12.530;2023-05-29T12:06:30;13.13;;;6.00;;
54947;SDS011;41113;41.882;12.530;2023-05-29T12:08:59;16.33;;;6.40;;
54947;SDS011;41113;41.882;12.530;2023-05-29T12:11:25;10.98;;;6.03;;
54947;SDS011;41113;41.882;12.530;2023-05-29T12:13:59;14.77;;;6.70;;
54947;SDS011;41113;41.882;12.530;2023-05-29T12:16:26;10.90;;;6.15;;
54947;SDS011;41113;41.882;12.530;2023-05-29T12:18:57;13.18;;;6.45;;
54947;SDS011;41113;41.882;12.530;2023-05-29T12:21:23;13.95;;;6.50;;
54947;SDS011;41113;41.882;12.530;2023-05-29T12:23:56;14.30;;;6.47;;
54947;SDS011;41113;41.882;12.530;2023-05-29T12:26:22;10.43;;;6.13;;
54947;SDS011;41113;41.882;12.530;2023-05-29T12:28:49;13.35;;;6.63;;
54947;SDS011;41113;41.882;12.530;2023-05-29T12:31:28;12.68;;;6.55;;
54947;SDS011;41113;41.882;12.530;2023-05-29T12:33:54;11.77;;;6.40;;
54947;SDS011;41113;41.882;12.530;2023-05-29T12:36:25;10.48;;;6.10;;
54947;SDS011;41113;41.882;12.530;2023-05-29T12:38:51;13.93;;;6.22;;
54947;SDS011;41113;41.882;12.530;2023-05-29T12:41:30;11.95;;;6.38;;
54947;SDS011;41113;41.882;12.530;2023-05-29T12:44:00;12.35;;;6.25;;
54947;SDS011;41113;41.882;12.530;2023-05-29T12:46:27;11.35;;;6.15;;
54947;SDS011;41113;41.882;12.530;2023-05-29T12:48:56;14.35;;;6.47;;
54947;SDS011;41113;41.882;12.530;2023-05-29T12:51:26;12.63;;;6.45;;
54947;SDS011;41113;41.882;12.530;2023-05-29T12:53:52;10.98;;;5.93;;
54947;SDS011;41113;41.882;12.530;2023-05-29T12:56:20;13.45;;;6.18;;
54947;SDS011;41113;41.882;12.530;2023-05-29T12:58:52;11.93;;;6.03;;
54947;SDS011;41113;41.882;12.530;2023-05-29T13:01:17;12.65;;;6.90;;
54947;SDS011;41113;41.882;12.530;2023-05-29T13:03:43;12.32;;;6.75;;
54947;SDS011;41113;41.882;12.530;2023-05-29T13:06:09;12.02;;;6.30;;
54947;SDS011;41113;41.882;12.530;2023-05-29T13:08:35;12.68;;;6.43;;
54947;SDS011;41113;41.882;12.530;2023-05-29T13:11:00;12.07;;;6.13;;
54947;SDS011;41113;41.882;12.530;2023-05-29T13:13:26;12.38;;;6.57;;
54947;SDS011;41113;41.882;12.530;2023-05-29T13:15:51;14.77;;;6.75;;
54947;SDS011;41113;41.882;12.530;2023-05-29T13:18:16;12.27;;;6.13;;
54947;SDS011;41113;41.882;12.530;2023-05-29T13:20:42;14.75;;;6.38;;
54947;SDS011;41113;41.882;12.530;2023-05-29T13:23:07;14.10;;;6.35;;
54947;SDS011;41113;41.882;12.530;2023-05-29T13:25:33;13.25;;;6.78;;
54947;SDS011;41113;41.882;12.530;2023-05-29T13:27:59;11.10;;;6.45;;
54947;SDS011;41113;41.882;12.530;2023-05-29T13:30:24;13.50;;;6.70;;
54947;SDS011;41113;41.882;12.530;2023-05-29T13:32:50;13.48;;;6.03;;
54947;SDS011;41113;41.882;12.530;2023-05-29T13:35:17;10.80;;;5.65;;
54947;SDS011;41113;41.882;12.530;2023-05-29T13:37:42;11.25;;;5.80;;
54947;SDS011;41113;41.882;12.530;2023-05-29T13:40:08;12.23;;;6.05;;
54947;SDS011;41113;41.882;12.530;2023-05-29T13:42:35;11.63;;;5.18;;
54947;SDS011;41113;41.882;12.530;2023-05-29T13:45:01;11.27;;;5.80;;
54947;SDS011;41113;41.882;12.530;2023-05-29T13:47:26;10.93;;;5.47;;
54947;SDS011;41113;41.882;12.530;2023-05-29T13:49:53;11.15;;;6.03;;
54947;SDS011;41113;41.882;12.530;2023-05-29T13:52:19;11.30;;;6.18;;
54947;SDS011;41113;41.882;12.530;2023-05-29T13:54:44;10.07;;;5.45;;
54947;SDS011;41113;41.882;12.530;2023-05-29T13:57:10;12.57;;;5.00;;
54947;SDS011;41113;41.882;12.530;2023-05-29T13:59:35;11.02;;;5.05;;
54947;SDS011;41113;41.882;12.530;2023-05-29T14:02:01;9.93;;;5.40;;
54947;SDS011;41113;41.882;12.530;2023-05-29T14:04:28;12.85;;;4.97;;
54947;SDS011;41113;41.882;12.530;2023-05-29T14:06:56;9.20;;;4.78;;
54947;SDS011;41113;41.882;12.530;2023-05-29T14:09:22;10.15;;;4.95;;
54947;SDS011;41113;41.882;12.530;2023-05-29T14:11:55;11.65;;;4.97;;
54947;SDS011;41113;41.882;12.530;2023-05-29T14:14:23;10.38;;;4.97;;
54947;SDS011;41113;41.882;12.530;2023-05-29T14:16:49;10.23;;;5.05;;
54947;SDS011;41113;41.882;12.530;2023-05-29T14:19:15;9.27;;;4.80;;
54947;SDS011;41113;41.882;12.530;2023-05-29T14:21:41;9.38;;;4.53;;
54947;SDS011;41113;41.882;12.530;2023-05-29T14:24:06;10.65;;;5.15;;
54947;SDS011;41113;41.882;12.530;2023-05-29T14:26:32;10.00;;;4.72;;
54947;SDS011;41113;41.882;12.530;2023-05-29T14:28:57;12.57;;;4.53;;
54947;SDS011;41113;41.882;12.530;2023-05-29T14:31:23;9.32;;;4.25;;
54947;SDS011;41113;41.882;12.530;2023-05-29T14:33:48;11.40;;;4.18;;
54947;SDS011;41113;41.882;12.530;2023-05-29T14:36:13;9.82;;;4.20;;
54947;SDS011;41113;41.882;12.530;2023-05-29T14:38:39;12.73;;;3.92;;